createdAt,value
2018-02-01T00:00:00.378Z,99.99
2018-02-01T00:01:00.303Z,99.99
2018-02-01T00:02:00.231Z,99.99
2018-02-01T00:03:00.133Z,99.99
2018-02-01T00:04:00.051Z,99.99
2018-02-01T00:04:59.967Z,99.99
2018-02-01T00:05:59.886Z,99.99
2018-02-01T00:06:59.853Z,99.99
2018-02-01T00:07:59.716Z,99.99
2018-02-01T00:08:59.654Z,99.99
2018-02-01T00:09:59.548Z,99.99
2018-02-01T00:10:59.465Z,99.99
2018-02-01T00:11:59.389Z,99.99
2018-02-01T00:12:59.306Z,99.99
2018-02-01T00:13:59.230Z,99.99
2018-02-01T00:14:59.141Z,99.99
2018-02-01T00:15:59.060Z,99.99
2018-02-01T00:16:58.976Z,99.99
2018-02-01T00:17:58.893Z,99.99
2018-02-01T00:18:58.807Z,99.99
2018-02-01T00:19:58.723Z,99.99
2018-02-01T00:20:58.641Z,99.99
2018-02-01T00:21:58.580Z,99.99
2018-02-01T00:22:58.480Z,99.99
2018-02-01T00:23:58.396Z,99.99
2018-02-01T00:24:58.315Z,99.99
2018-02-01T00:25:58.233Z,99.99
2018-02-01T00:26:58.146Z,99.99
2018-02-01T00:27:58.079Z,99.99
2018-02-01T00:28:57.986Z,99.99
2018-02-01T00:29:57.904Z,99.99
2018-02-01T00:30:57.813Z,99.99
2018-02-01T00:31:57.734Z,99.99
2018-02-01T00:32:57.655Z,99.99
2018-02-01T00:33:57.576Z,99.99
2018-02-01T00:34:57.477Z,99.99
2018-02-01T00:35:57.408Z,99.99
2018-02-01T00:36:57.328Z,99.99
2018-02-01T00:37:57.246Z,99.99
2018-02-01T00:38:57.165Z,99.99
2018-02-01T00:39:57.065Z,99.99
2018-02-01T00:40:56.994Z,99.99
2018-02-01T00:41:56.905Z,99.99
2018-02-01T00:42:56.832Z,99.99
2018-02-01T00:43:56.751Z,99.99
2018-02-01T00:44:56.676Z,99.99
2018-02-01T00:45:56.578Z,99.99
2018-02-01T00:46:56.508Z,99.99
2018-02-01T00:47:56.404Z,99.99
2018-02-01T00:48:56.334Z,99.99
2018-02-01T00:49:56.247Z,99.99
2018-02-01T00:50:56.162Z,99.99
2018-02-01T00:51:56.086Z,99.99
2018-02-01T00:52:56.004Z,99.99
2018-02-01T00:53:55.908Z,99.99
2018-02-01T00:54:55.833Z,99.99
2018-02-01T00:55:55.758Z,99.99
2018-02-01T00:56:55.673Z,99.99
2018-02-01T00:57:55.589Z,99.99
2018-02-01T00:58:55.495Z,99.99
2018-02-01T00:59:55.423Z,99.99
2018-02-01T01:00:55.329Z,99.99
2018-02-01T01:01:55.242Z,99.99
2018-02-01T01:02:55.177Z,99.99
2018-02-01T01:03:55.082Z,99.99
2018-02-01T01:04:55.012Z,99.99
2018-02-01T01:05:54.934Z,99.99
2018-02-01T01:06:54.830Z,99.99
2018-02-01T01:07:54.765Z,99.99
2018-02-01T01:08:54.674Z,99.99
2018-02-01T01:09:54.583Z,99.99
2018-02-01T01:10:54.510Z,99.99
2018-02-01T01:11:54.429Z,99.99
2018-02-01T01:12:54.335Z,99.99
2018-02-01T01:13:54.265Z,99.99
2018-02-01T01:14:54.172Z,99.99
2018-02-01T01:15:54.087Z,99.99
2018-02-01T01:16:54.011Z,99.99
2018-02-01T01:17:53.932Z,99.99
2018-02-01T01:18:53.840Z,99.99
2018-02-01T01:19:53.759Z,99.99
2018-02-01T01:20:53.676Z,99.99
2018-02-01T01:21:53.612Z,99.99
2018-02-01T01:22:53.512Z,99.99
2018-02-01T01:23:53.424Z,99.99
2018-02-01T01:24:53.356Z,99.99
2018-02-01T01:25:53.256Z,99.99
2018-02-01T01:26:53.175Z,99.99
2018-02-01T01:27:53.096Z,99.99
2018-02-01T01:28:53.026Z,99.99
2018-02-01T01:29:52.940Z,99.99
2018-02-01T01:30:52.851Z,99.99
2018-02-01T01:31:52.760Z,99.99
2018-02-01T01:32:52.682Z,99.99
2018-02-01T01:33:52.602Z,99.99
2018-02-01T01:34:52.517Z,99.99
2018-02-01T01:35:52.436Z,99.99
2018-02-01T01:36:52.353Z,99.99
2018-02-01T01:37:52.264Z,99.99
2018-02-01T01:38:52.187Z,99.99
2018-02-01T01:39:52.112Z,99.99
2018-02-01T01:40:52.010Z,99.99
2018-02-01T01:41:51.945Z,99.99
2018-02-01T01:42:51.865Z,99.99
2018-02-01T01:43:51.762Z,99.99
2018-02-01T01:44:51.700Z,99.99
2018-02-01T01:45:51.914Z,99.99
2018-02-01T01:46:51.524Z,99.99
2018-02-01T01:47:51.442Z,99.99
2018-02-01T01:48:51.353Z,99.99
2018-02-01T01:49:51.272Z,99.99
2018-02-01T01:50:51.192Z,99.99
2018-02-01T01:51:51.115Z,99.99
2018-02-01T01:52:51.031Z,99.99
2018-02-01T01:53:50.940Z,99.99
2018-02-01T01:54:50.849Z,99.99
2018-02-01T01:55:50.778Z,99.99
2018-02-01T01:56:50.691Z,99.99
2018-02-01T01:57:50.614Z,99.99
2018-02-01T01:58:50.541Z,99.99
2018-02-01T01:59:50.436Z,99.99
2018-02-01T02:00:50.368Z,99.99
2018-02-01T02:01:50.284Z,99.99
2018-02-01T02:02:50.199Z,99.99
2018-02-01T02:03:50.118Z,99.99
2018-02-01T02:04:50.026Z,99.99
2018-02-01T02:05:50.240Z,99.99
2018-02-01T02:06:49.868Z,99.99
2018-02-01T02:07:49.780Z,99.99
2018-02-01T02:08:49.707Z,99.99
2018-02-01T02:09:49.621Z,99.99
2018-02-01T02:10:49.527Z,99.99
2018-02-01T02:11:49.454Z,99.99
2018-02-01T02:12:49.361Z,99.99
2018-02-01T02:13:49.279Z,99.99
2018-02-01T02:14:49.211Z,99.99
2018-02-01T02:15:49.127Z,99.99
2018-02-01T02:16:49.032Z,99.99
2018-02-01T02:17:48.961Z,99.99
2018-02-01T02:18:48.864Z,99.99
2018-02-01T02:19:48.795Z,99.99
2018-02-01T02:20:48.707Z,99.99
2018-02-01T02:21:48.612Z,99.99
2018-02-01T02:22:48.548Z,99.99
2018-02-01T02:23:48.450Z,99.99
2018-02-01T02:24:48.366Z,99.99
2018-02-01T02:25:48.296Z,99.99
2018-02-01T02:26:48.214Z,99.99
2018-02-01T02:27:48.121Z,99.99
2018-02-01T02:28:48.040Z,99.99
2018-02-01T02:29:47.953Z,99.99
2018-02-01T02:30:47.883Z,99.99
2018-02-01T02:31:47.788Z,99.99
2018-02-01T02:32:47.717Z,99.99
2018-02-01T02:33:47.635Z,99.99
2018-02-01T02:34:47.538Z,99.99
2018-02-01T02:35:47.459Z,99.99
2018-02-01T02:36:47.397Z,99.99
2018-02-01T02:37:47.291Z,99.99
2018-02-01T02:38:47.221Z,99.99
2018-02-01T02:39:47.133Z,99.99
2018-02-01T02:40:47.045Z,99.99
2018-02-01T02:41:46.968Z,99.99
2018-02-01T02:42:46.885Z,99.99
2018-02-01T02:43:46.796Z,99.99
2018-02-01T02:44:46.719Z,99.99
2018-02-01T02:45:46.634Z,99.99
2018-02-01T02:46:46.544Z,99.99
2018-02-01T02:47:46.471Z,99.99
2018-02-01T02:48:46.381Z,99.99
2018-02-01T02:49:46.295Z,99.99
2018-02-01T02:50:46.226Z,99.99
2018-02-01T02:51:46.136Z,99.99
2018-02-01T02:52:46.059Z,99.99
2018-02-01T02:53:45.971Z,99.99
2018-02-01T02:54:45.892Z,99.99
2018-02-01T02:55:45.821Z,99.99
2018-02-01T02:56:45.716Z,99.99
2018-02-01T02:57:45.641Z,99.99
2018-02-01T02:58:45.577Z,99.99
2018-02-01T02:59:45.470Z,99.99
2018-02-01T03:00:45.403Z,99.99
2018-02-01T03:01:45.324Z,99.99
2018-02-01T03:02:45.219Z,99.99
2018-02-01T03:03:45.148Z,99.99
2018-02-01T03:04:45.056Z,99.99
2018-02-01T03:05:44.978Z,99.99
2018-02-01T03:06:44.897Z,99.99
2018-02-01T03:07:44.808Z,99.99
2018-02-01T03:08:44.750Z,99.99
2018-02-01T03:09:44.651Z,99.99
2018-02-01T03:10:44.562Z,99.99
2018-02-01T03:11:44.488Z,99.99
2018-02-01T03:12:44.395Z,99.99
2018-02-01T03:13:44.314Z,99.99
2018-02-01T03:14:44.240Z,99.99
2018-02-01T03:15:44.147Z,99.99
2018-02-01T03:16:44.073Z,99.99
2018-02-01T03:17:43.992Z,99.99
2018-02-01T03:18:43.893Z,99.99
2018-02-01T03:19:43.830Z,99.99
2018-02-01T03:20:43.736Z,99.99
2018-02-01T03:21:43.649Z,99.99
2018-02-01T03:22:43.575Z,99.99
2018-02-01T03:23:43.494Z,99.99
2018-02-01T03:24:43.400Z,99.99
2018-02-01T03:25:43.329Z,99.99
2018-02-01T03:26:43.239Z,99.99
2018-02-01T03:27:43.152Z,99.99
2018-02-01T03:28:43.075Z,99.99
2018-02-01T03:29:42.998Z,99.99
2018-02-01T03:30:42.920Z,99.99
2018-02-01T03:31:42.827Z,99.99
2018-02-01T03:32:42.740Z,99.99
2018-02-01T03:33:42.666Z,99.99
2018-02-01T03:34:42.572Z,99.99
2018-02-01T03:35:42.501Z,99.99
2018-02-01T03:36:42.409Z,99.99
2018-02-01T03:37:42.323Z,99.99
2018-02-01T03:38:42.250Z,99.99
2018-02-01T03:39:42.176Z,99.99
2018-02-01T03:40:42.079Z,99.99
2018-02-01T03:41:42.003Z,99.99
2018-02-01T03:42:41.925Z,99.99
2018-02-01T03:43:41.832Z,99.99
2018-02-01T03:44:41.748Z,99.99
2018-02-01T03:45:41.961Z,99.99
2018-02-01T03:46:41.579Z,99.99
2018-02-01T03:47:41.500Z,99.99
2018-02-01T03:48:41.418Z,99.99
2018-02-01T03:49:41.343Z,99.99
2018-02-01T03:50:41.254Z,99.99
2018-02-01T03:51:41.165Z,99.99
2018-02-01T03:52:41.098Z,99.99
2018-02-01T03:53:41.001Z,99.99
2018-02-01T03:54:40.916Z,99.99
2018-02-01T03:55:40.844Z,99.99
2018-02-01T03:56:40.755Z,99.99
2018-02-01T03:57:40.679Z,99.99
2018-02-01T03:58:40.600Z,99.99
2018-02-01T03:59:40.506Z,99.99
2018-02-01T04:00:40.434Z,99.99
2018-02-01T04:01:40.359Z,99.99
2018-02-01T04:02:40.256Z,99.99
2018-02-01T04:03:40.179Z,99.99
2018-02-01T04:04:40.112Z,99.99
2018-02-01T04:05:40.005Z,99.99
2018-02-01T04:06:39.925Z,99.99
2018-02-01T04:07:39.844Z,99.99
2018-02-01T04:08:39.768Z,99.99
2018-02-01T04:09:39.676Z,99.99
2018-02-01T04:10:39.895Z,99.99
2018-02-01T04:11:39.513Z,99.99
2018-02-01T04:12:39.435Z,99.99
2018-02-01T04:13:39.358Z,99.99
2018-02-01T04:14:39.270Z,99.99
2018-02-01T04:15:39.179Z,99.99
2018-02-01T04:16:39.102Z,99.99
2018-02-01T04:17:39.014Z,99.99
2018-02-01T04:18:38.930Z,99.99
2018-02-01T04:19:38.855Z,99.99
2018-02-01T04:20:38.775Z,99.99
2018-02-01T04:21:38.683Z,99.99
2018-02-01T04:22:38.604Z,99.99
2018-02-01T04:23:38.521Z,99.99
2018-02-01T04:24:38.428Z,99.99
2018-02-01T04:25:38.352Z,99.99
2018-02-01T04:26:38.276Z,99.99
2018-02-01T04:27:38.194Z,99.99
2018-02-01T04:28:38.112Z,99.99
2018-02-01T04:29:38.033Z,99.99
2018-02-01T04:30:37.976Z,99.99
2018-02-01T04:31:37.861Z,99.99
2018-02-01T04:32:37.784Z,99.99
2018-02-01T04:33:37.694Z,99.99
2018-02-01T04:34:37.612Z,99.99
2018-02-01T04:35:37.533Z,99.99
2018-02-01T04:36:37.449Z,99.99
2018-02-01T04:37:37.363Z,99.99
2018-02-01T04:38:37.281Z,99.99
2018-02-01T04:39:37.201Z,99.99
2018-02-01T04:40:37.108Z,99.99
2018-02-01T04:41:37.030Z,99.99
2018-02-01T04:42:36.948Z,99.99
2018-02-01T04:43:36.858Z,99.99
2018-02-01T04:44:36.787Z,99.99
2018-02-01T04:45:36.714Z,99.99
2018-02-01T04:46:36.619Z,99.99
2018-02-01T04:47:36.533Z,99.99
2018-02-01T04:48:36.448Z,99.99
2018-02-01T04:49:36.378Z,99.99
2018-02-01T04:50:36.280Z,99.99
2018-02-01T04:51:36.212Z,99.99
2018-02-01T04:52:36.120Z,99.99
2018-02-01T04:53:36.035Z,99.99
2018-02-01T04:54:35.963Z,99.99
2018-02-01T04:55:35.881Z,99.99
2018-02-01T04:56:35.788Z,99.99
2018-02-01T04:57:35.710Z,99.99
2018-02-01T04:58:35.634Z,99.99
2018-02-01T04:59:35.561Z,99.99
2018-02-01T05:00:35.458Z,99.99
2018-02-01T05:01:35.371Z,99.99
2018-02-01T05:02:35.303Z,99.99
2018-02-01T05:03:35.209Z,99.99
2018-02-01T05:04:35.137Z,99.58
2018-02-01T05:05:35.096Z,99.20
2018-02-01T05:06:34.960Z,99.48
2018-02-01T05:07:34.888Z,99.39
2018-02-01T05:08:34.796Z,98.54
2018-02-01T05:09:34.707Z,99.29
2018-02-01T05:10:34.641Z,99.29
2018-02-01T05:11:34.548Z,99.20
2018-02-01T05:12:34.464Z,99.77
2018-02-01T05:13:34.390Z,99.67
2018-02-01T05:14:34.310Z,99.48
2018-02-01T05:15:34.219Z,99.48
2018-02-01T05:16:34.136Z,99.20
2018-02-01T05:17:34.046Z,98.82
2018-02-01T05:18:33.971Z,98.54
2018-02-01T05:19:33.886Z,99.01
2018-02-01T05:20:34.101Z,98.91
2018-02-01T05:21:33.726Z,98.91
2018-02-01T05:22:33.635Z,99.77
2018-02-01T05:23:33.553Z,99.77
2018-02-01T05:24:33.487Z,99.58
2018-02-01T05:25:33.390Z,98.54
2018-02-01T05:26:33.316Z,98.44
2018-02-01T05:27:33.234Z,98.63
2018-02-01T05:28:33.139Z,98.63
2018-02-01T05:29:33.068Z,99.01
2018-02-01T05:30:32.978Z,99.20
2018-02-01T05:31:32.890Z,99.48
2018-02-01T05:32:32.812Z,99.99
2018-02-01T05:33:32.725Z,99.20
2018-02-01T05:34:32.643Z,99.39
2018-02-01T05:35:32.565Z,99.01
2018-02-01T05:36:32.482Z,99.48
2018-02-01T05:37:32.393Z,99.20
2018-02-01T05:38:32.312Z,99.77
2018-02-01T05:39:32.239Z,99.10
2018-02-01T05:40:32.136Z,98.82
2018-02-01T05:41:32.060Z,98.54
2018-02-01T05:42:31.981Z,98.63
2018-02-01T05:43:31.892Z,98.44
2018-02-01T05:44:31.819Z,99.67
2018-02-01T05:45:31.730Z,99.48
2018-02-01T05:46:31.663Z,98.63
2018-02-01T05:47:31.569Z,98.06
2018-02-01T05:48:31.476Z,97.97
2018-02-01T05:49:31.404Z,97.78
2018-02-01T05:50:31.315Z,98.35
2018-02-01T05:51:31.227Z,98.25
2018-02-01T05:52:31.168Z,98.72
2018-02-01T05:53:31.069Z,98.54
2018-02-01T05:54:30.989Z,97.87
2018-02-01T05:55:30.904Z,98.91
2018-02-01T05:56:30.813Z,99.01
2018-02-01T05:57:30.737Z,98.25
2018-02-01T05:58:30.660Z,98.63
2018-02-01T05:59:30.565Z,98.82
2018-02-01T06:00:30.494Z,98.35
2018-02-01T06:01:30.407Z,98.16
2018-02-01T06:02:30.317Z,98.44
2018-02-01T06:03:30.244Z,98.63
2018-02-01T06:04:30.169Z,98.63
2018-02-01T06:05:30.065Z,99.29
2018-02-01T06:06:29.993Z,99.39
2018-02-01T06:07:29.903Z,99.99
2018-02-01T06:08:29.820Z,99.99
2018-02-01T06:09:29.747Z,99.58
2018-02-01T06:10:29.652Z,99.58
2018-02-01T06:11:29.581Z,99.20
2018-02-01T06:12:29.492Z,99.48
2018-02-01T06:13:29.410Z,99.99
2018-02-01T06:14:29.325Z,99.99
2018-02-01T06:15:29.242Z,99.99
2018-02-01T06:16:29.158Z,99.99
2018-02-01T06:17:29.083Z,99.99
2018-02-01T06:18:28.996Z,99.99
2018-02-01T06:19:28.911Z,99.99
2018-02-01T06:20:28.846Z,99.99
2018-02-01T06:21:28.745Z,99.99
2018-02-01T06:22:28.659Z,99.99
2018-02-01T06:23:28.582Z,99.99
2018-02-01T06:24:28.544Z,99.99
2018-02-01T06:25:28.411Z,99.99
2018-02-01T06:26:28.344Z,99.99
2018-02-01T06:27:28.250Z,99.71
2018-02-01T06:28:28.170Z,99.99
2018-02-01T06:29:28.081Z,99.99
2018-02-01T06:30:27.998Z,99.15
2018-02-01T06:31:27.920Z,99.43
2018-02-01T06:32:27.837Z,99.52
2018-02-01T06:33:27.747Z,99.43
2018-02-01T06:34:27.673Z,99.99
2018-02-01T06:35:27.592Z,99.99
2018-02-01T06:36:27.496Z,99.90
2018-02-01T06:37:27.417Z,99.99
2018-02-01T06:38:27.338Z,99.99
2018-02-01T06:39:27.243Z,99.99
2018-02-01T06:40:27.175Z,99.90
2018-02-01T06:41:27.086Z,99.43
2018-02-01T06:42:26.992Z,99.90
2018-02-01T06:43:26.924Z,99.99
2018-02-01T06:44:26.833Z,99.99
2018-02-01T06:45:26.747Z,99.99
2018-02-01T06:46:26.678Z,99.99
2018-02-01T06:47:26.581Z,99.90
2018-02-01T06:48:26.501Z,99.90
2018-02-01T06:49:26.422Z,99.99
2018-02-01T06:50:26.336Z,99.81
2018-02-01T06:51:26.257Z,99.05
2018-02-01T06:52:26.172Z,99.99
2018-02-01T06:53:26.087Z,99.43
2018-02-01T06:54:26.000Z,99.24
2018-02-01T06:55:25.928Z,99.52
2018-02-01T06:56:25.832Z,99.99
2018-02-01T06:57:25.748Z,99.99
2018-02-01T06:58:25.677Z,99.43
2018-02-01T06:59:25.596Z,99.99
2018-02-01T07:00:25.504Z,99.62
2018-02-01T07:01:25.426Z,99.24
2018-02-01T07:02:25.339Z,98.96
2018-02-01T07:03:25.249Z,99.05
2018-02-01T07:04:25.173Z,99.52
2018-02-01T07:05:25.084Z,99.33
2018-02-01T07:06:25.014Z,99.43
2018-02-01T07:07:24.922Z,98.86
2018-02-01T07:08:24.851Z,99.24
2018-02-01T07:09:24.753Z,99.43
2018-02-01T07:10:24.677Z,98.20
2018-02-01T07:11:24.592Z,98.34
2018-02-01T07:12:24.511Z,97.82
2018-02-01T07:13:24.423Z,97.35
2018-02-01T07:14:24.359Z,98.77
2018-02-01T07:15:24.252Z,99.24
2018-02-01T07:16:24.178Z,98.96
2018-02-01T07:17:24.089Z,98.39
2018-02-01T07:18:24.014Z,98.20
2018-02-01T07:19:23.928Z,97.73
2018-02-01T07:20:23.851Z,97.92
2018-02-01T07:21:23.751Z,98.30
2018-02-01T07:22:23.679Z,98.39
2018-02-01T07:23:23.586Z,98.58
2018-02-01T07:24:23.505Z,98.39
2018-02-01T07:25:23.432Z,99.29
2018-02-01T07:26:23.348Z,98.82
2018-02-01T07:27:23.300Z,97.73
2018-02-01T07:28:23.172Z,97.54
2018-02-01T07:29:23.098Z,97.82
2018-02-01T07:30:23.021Z,98.01
2018-02-01T07:31:22.912Z,97.92
2018-02-01T07:32:22.844Z,97.92
2018-02-01T07:33:22.755Z,97.44
2018-02-01T07:34:22.666Z,97.06
2018-02-01T07:35:22.595Z,98.20
2018-02-01T07:36:22.499Z,98.11
2018-02-01T07:37:22.412Z,97.54
2018-02-01T07:38:22.347Z,97.63
2018-02-01T07:39:22.256Z,97.25
2018-02-01T07:40:22.169Z,98.01
2018-02-01T07:41:22.095Z,97.54
2018-02-01T07:42:22.003Z,97.44
2018-02-01T07:43:21.919Z,98.01
2018-02-01T07:44:21.840Z,97.54
2018-02-01T07:45:21.755Z,97.63
2018-02-01T07:46:21.682Z,97.44
2018-02-01T07:47:21.576Z,96.88
2018-02-01T07:48:21.509Z,96.78
2018-02-01T07:49:21.417Z,96.78
2018-02-01T07:50:21.332Z,96.97
2018-02-01T07:51:21.255Z,96.31
2018-02-01T07:52:21.165Z,97.35
2018-02-01T07:53:21.132Z,97.16
2018-02-01T07:54:21.006Z,97.06
2018-02-01T07:55:20.914Z,96.88
2018-02-01T07:56:20.830Z,96.69
2018-02-01T07:57:20.758Z,96.50
2018-02-01T07:58:20.675Z,96.50
2018-02-01T07:59:20.582Z,97.25
2018-02-01T08:00:20.506Z,96.88
2018-02-01T08:01:20.429Z,96.02
2018-02-01T08:02:20.333Z,96.69
2018-02-01T08:03:20.251Z,95.74
2018-02-01T08:04:20.168Z,95.55
2018-02-01T08:05:20.095Z,95.55
2018-02-01T08:06:20.001Z,94.60
2018-02-01T08:07:19.925Z,95.17
2018-02-01T08:08:19.829Z,95.64
2018-02-01T08:09:19.754Z,95.83
2018-02-01T08:10:19.686Z,95.74
2018-02-01T08:11:19.577Z,94.79
2018-02-01T08:12:19.517Z,94.13
2018-02-01T08:13:19.421Z,94.60
2018-02-01T08:14:19.334Z,94.70
2018-02-01T08:15:19.251Z,95.36
2018-02-01T08:16:19.177Z,94.60
2018-02-01T08:17:19.085Z,94.60
2018-02-01T08:18:18.996Z,93.75
2018-02-01T08:19:18.922Z,93.84
2018-02-01T08:20:18.840Z,93.46
2018-02-01T08:21:18.760Z,94.08
2018-02-01T08:22:18.657Z,93.46
2018-02-01T08:23:18.582Z,93.42
2018-02-01T08:24:18.498Z,93.80
2018-02-01T08:25:18.418Z,92.57
2018-02-01T08:26:18.332Z,92.57
2018-02-01T08:27:18.246Z,92.66
2018-02-01T08:28:18.163Z,91.71
2018-02-01T08:29:18.088Z,91.43
2018-02-01T08:30:18.018Z,91.52
2018-02-01T08:31:17.914Z,90.67
2018-02-01T08:32:17.862Z,90.01
2018-02-01T08:33:17.756Z,90.39
2018-02-01T08:34:17.678Z,90.39
2018-02-01T08:35:17.580Z,90.20
2018-02-01T08:36:17.509Z,89.82
2018-02-01T08:37:17.412Z,90.20
2018-02-01T08:38:17.331Z,89.96
2018-02-01T08:39:17.251Z,89.25
2018-02-01T08:40:17.172Z,89.15
2018-02-01T08:41:17.083Z,89.11
2018-02-01T08:42:17.015Z,89.48
2018-02-01T08:43:16.944Z,89.77
2018-02-01T08:44:16.835Z,89.39
2018-02-01T08:45:16.773Z,89.48
2018-02-01T08:46:16.673Z,89.48
2018-02-01T08:47:16.599Z,88.96
2018-02-01T08:48:16.505Z,88.87
2018-02-01T08:49:16.538Z,89.53
2018-02-01T08:50:16.382Z,89.25
2018-02-01T08:51:16.259Z,89.53
2018-02-01T08:52:16.178Z,90.01
2018-02-01T08:53:16.094Z,89.91
2018-02-01T08:54:16.013Z,89.44
2018-02-01T08:55:15.926Z,89.34
2018-02-01T08:56:15.833Z,88.21
2018-02-01T08:57:15.758Z,88.68
2018-02-01T08:58:15.676Z,89.25
2018-02-01T08:59:15.585Z,89.15
2018-02-01T09:00:15.514Z,88.59
2018-02-01T09:01:15.428Z,88.30
2018-02-01T09:02:15.346Z,88.49
2018-02-01T09:03:15.259Z,87.87
2018-02-01T09:04:15.200Z,88.16
2018-02-01T09:05:15.104Z,88.54
2018-02-01T09:06:15.013Z,87.40
2018-02-01T09:07:14.945Z,87.59
2018-02-01T09:08:14.861Z,87.40
2018-02-01T09:09:14.760Z,87.40
2018-02-01T09:10:14.692Z,86.83
2018-02-01T09:11:14.602Z,86.41
2018-02-01T09:12:14.519Z,86.88
2018-02-01T09:13:14.442Z,87.02
2018-02-01T09:14:14.353Z,87.40
2018-02-01T09:15:14.264Z,86.83
2018-02-01T09:16:14.184Z,87.68
2018-02-01T09:17:14.115Z,87.59
2018-02-01T09:18:14.016Z,86.16
2018-02-01T09:19:13.936Z,86.45
2018-02-01T09:20:14.189Z,86.55
2018-02-01T09:21:13.906Z,85.60
2018-02-01T09:22:13.688Z,86.07
2018-02-01T09:23:13.618Z,85.69
2018-02-01T09:24:13.845Z,84.84
2018-02-01T09:25:13.438Z,84.17
2018-02-01T09:26:13.366Z,83.27
2018-02-01T09:27:13.275Z,83.08
2018-02-01T09:28:13.193Z,82.17
2018-02-01T09:29:13.120Z,80.90
2018-02-01T09:30:13.025Z,80.62
2018-02-01T09:31:12.991Z,82.04
2018-02-01T09:32:12.891Z,82.70
2018-02-01T09:33:12.801Z,83.70
2018-02-01T09:34:12.700Z,83.04
2018-02-01T09:35:12.631Z,83.42
2018-02-01T09:36:12.605Z,83.32
2018-02-01T09:37:12.497Z,83.61
2018-02-01T09:38:12.371Z,84.84
2018-02-01T09:39:12.305Z,85.03
2018-02-01T09:40:12.212Z,84.03
2018-02-01T09:41:12.130Z,83.17
2018-02-01T09:42:12.057Z,83.23
2018-02-01T09:43:11.985Z,83.23
2018-02-01T09:44:11.893Z,83.46
2018-02-01T09:45:11.809Z,82.98
2018-02-01T09:46:11.724Z,83.46
2018-02-01T09:47:11.639Z,82.42
2018-02-01T09:48:11.543Z,82.32
2018-02-01T09:49:11.475Z,82.32
2018-02-01T09:50:11.396Z,81.09
2018-02-01T09:51:11.315Z,80.99
2018-02-01T09:52:11.229Z,81.37
2018-02-01T09:53:11.163Z,81.56
2018-02-01T09:54:11.113Z,80.43
2018-02-01T09:55:10.987Z,80.62
2018-02-01T09:56:10.881Z,81.47
2018-02-01T09:57:10.798Z,80.46
2018-02-01T09:58:10.777Z,79.47
2018-02-01T09:59:10.642Z,79.99
2018-02-01T10:00:10.577Z,79.10
2018-02-01T10:01:10.508Z,79.38
2018-02-01T10:02:10.404Z,79.28
2018-02-01T10:03:10.313Z,79.00
2018-02-01T10:04:10.218Z,78.81
2018-02-01T10:05:10.146Z,78.05
2018-02-01T10:06:10.073Z,78.43
2018-02-01T10:07:09.979Z,78.91
2018-02-01T10:08:09.902Z,78.81
2018-02-01T10:09:09.820Z,79.10
2018-02-01T10:10:09.729Z,79.33
2018-02-01T10:11:09.649Z,79.04
2018-02-01T10:12:09.568Z,78.56
2018-02-01T10:13:09.697Z,78.28
2018-02-01T10:14:09.412Z,77.81
2018-02-01T10:15:09.317Z,78.56
2018-02-01T10:16:09.252Z,77.62
2018-02-01T10:17:09.171Z,77.71
2018-02-01T10:18:09.073Z,77.43
2018-02-01T10:19:09.004Z,76.29
2018-02-01T10:20:08.918Z,75.81
2018-02-01T10:21:08.833Z,75.05
2018-02-01T10:22:08.750Z,74.68
2018-02-01T10:23:08.690Z,74.68
2018-02-01T10:24:08.586Z,75.34
2018-02-01T10:25:08.512Z,74.49
2018-02-01T10:26:08.419Z,74.81
2018-02-01T10:27:08.336Z,74.05
2018-02-01T10:28:08.256Z,74.52
2018-02-01T10:29:08.172Z,74.71
2018-02-01T10:30:08.193Z,72.44
2018-02-01T10:31:08.022Z,72.44
2018-02-01T10:32:07.951Z,73.10
2018-02-01T10:33:07.849Z,72.25
2018-02-01T10:34:07.773Z,72.91
2018-02-01T10:35:07.685Z,73.10
2018-02-01T10:36:07.617Z,72.44
2018-02-01T10:37:07.522Z,71.86
2018-02-01T10:38:07.454Z,70.73
2018-02-01T10:39:07.357Z,70.82
2018-02-01T10:40:07.300Z,71.48
2018-02-01T10:41:07.198Z,71.48
2018-02-01T10:42:07.120Z,70.15
2018-02-01T10:43:07.073Z,70.73
2018-02-01T10:44:06.963Z,69.49
2018-02-01T10:45:06.873Z,69.96
2018-02-01T10:46:06.793Z,71.01
2018-02-01T10:47:06.708Z,71.77
2018-02-01T10:48:06.627Z,71.30
2018-02-01T10:49:06.555Z,71.14
2018-02-01T10:50:06.470Z,69.91
2018-02-01T10:51:06.392Z,69.81
2018-02-01T10:52:06.303Z,68.96
2018-02-01T10:53:06.223Z,68.83
2018-02-01T10:54:06.141Z,68.83
2018-02-01T10:55:06.072Z,68.92
2018-02-01T10:56:05.978Z,69.49
2018-02-01T10:57:05.904Z,69.87
2018-02-01T10:58:05.827Z,69.96
2018-02-01T10:59:05.751Z,69.40
2018-02-01T11:00:05.681Z,69.40
2018-02-01T11:01:05.578Z,69.68
2018-02-01T11:02:05.489Z,69.68
2018-02-01T11:03:05.423Z,70.82
2018-02-01T11:04:05.331Z,69.49
2018-02-01T11:05:05.252Z,69.78
2018-02-01T11:06:05.203Z,69.11
2018-02-01T11:07:05.092Z,68.26
2018-02-01T11:08:05.005Z,69.11
2018-02-01T11:09:04.923Z,68.64
2018-02-01T11:10:04.846Z,68.16
2018-02-01T11:11:04.777Z,68.54
2018-02-01T11:12:04.679Z,68.83
2018-02-01T11:13:04.607Z,68.32
2018-02-01T11:14:04.533Z,68.89
2018-02-01T11:15:04.442Z,68.89
2018-02-01T11:16:04.358Z,69.17
2018-02-01T11:17:04.279Z,69.27
2018-02-01T11:18:04.188Z,69.93
2018-02-01T11:19:04.131Z,70.12
2018-02-01T11:20:04.025Z,69.93
2018-02-01T11:21:03.949Z,70.63
2018-02-01T11:22:03.872Z,70.12
2018-02-01T11:23:03.793Z,70.54
2018-02-01T11:24:03.709Z,70.82
2018-02-01T11:25:03.631Z,69.78
2018-02-01T11:26:03.539Z,69.40
2018-02-01T11:27:03.468Z,69.40
2018-02-01T11:28:03.380Z,68.92
2018-02-01T11:29:03.306Z,68.64
2018-02-01T11:30:03.230Z,69.30
2018-02-01T11:31:03.142Z,69.49
2018-02-01T11:32:03.067Z,70.06
2018-02-01T11:33:02.978Z,70.63
2018-02-01T11:34:02.900Z,70.06
2018-02-01T11:35:02.836Z,70.35
2018-02-01T11:36:02.744Z,70.54
2018-02-01T11:37:02.656Z,70.25
2018-02-01T11:38:02.583Z,69.78
2018-02-01T11:39:02.494Z,69.49
2018-02-01T11:40:02.420Z,69.59
2018-02-01T11:41:02.331Z,69.40
2018-02-01T11:42:02.301Z,69.30
2018-02-01T11:43:02.169Z,69.40
2018-02-01T11:44:02.090Z,70.25
2018-02-01T11:45:02.001Z,68.73
2018-02-01T11:46:01.957Z,67.79
2018-02-01T11:47:01.855Z,67.79
2018-02-01T11:48:01.771Z,67.79
2018-02-01T11:49:01.694Z,68.35
2018-02-01T11:50:01.605Z,68.13
2018-02-01T11:51:01.520Z,69.27
2018-02-01T11:52:01.456Z,69.65
2018-02-01T11:53:01.353Z,69.08
2018-02-01T11:54:01.283Z,69.36
2018-02-01T11:55:01.195Z,70.50
2018-02-01T11:56:01.123Z,69.36
2018-02-01T11:57:01.037Z,69.49
2018-02-01T11:58:00.959Z,69.40
2018-02-01T11:59:00.884Z,69.11
2018-02-01T12:00:00.794Z,67.63
2018-02-01T12:01:00.706Z,66.87
2018-02-01T12:02:00.635Z,66.39
2018-02-01T12:03:00.542Z,67.44
2018-02-01T12:04:00.487Z,66.14
2018-02-01T12:05:00.443Z,64.27
2018-02-01T12:06:00.402Z,63.04
2018-02-01T12:07:00.235Z,62.21
2018-02-01T12:08:00.157Z,60.63
2018-02-01T12:09:00.168Z,60.69
2018-02-01T12:09:59.985Z,61.96
2018-02-01T12:10:59.904Z,63.32
2018-02-01T12:11:59.833Z,61.64
2018-02-01T12:12:59.752Z,59.74
2018-02-01T12:13:59.655Z,58.72
2018-02-01T12:14:59.588Z,58.06
2018-02-01T12:15:59.495Z,57.89
2018-02-01T12:16:59.422Z,57.10
2018-02-01T12:17:59.366Z,57.84
2018-02-01T12:18:59.255Z,59.80
2018-02-01T12:19:59.188Z,57.70
2018-02-01T12:20:59.101Z,57.10
2018-02-01T12:21:59.030Z,57.04
2018-02-01T12:22:58.962Z,55.99
2018-02-01T12:23:58.860Z,55.22
2018-02-01T12:24:58.784Z,55.51
2018-02-01T12:25:58.712Z,58.25
2018-02-01T12:26:58.632Z,56.82
2018-02-01T12:27:58.565Z,55.96
2018-02-01T12:28:58.462Z,58.25
2018-02-01T12:29:58.382Z,61.61
2018-02-01T12:30:58.334Z,62.97
2018-02-01T12:31:58.237Z,64.97
2018-02-01T12:32:58.151Z,64.27
2018-02-01T12:33:58.086Z,61.45
2018-02-01T12:34:57.986Z,59.17
2018-02-01T12:35:57.918Z,59.49
2018-02-01T12:36:57.839Z,60.31
2018-02-01T12:37:57.748Z,58.22
2018-02-01T12:38:57.721Z,57.29
2018-02-01T12:39:57.586Z,56.60
2018-02-01T12:40:57.510Z,56.24
2018-02-01T12:41:57.441Z,56.70
2018-02-01T12:42:57.350Z,58.85
2018-02-01T12:43:57.292Z,61.20
2018-02-01T12:44:57.213Z,61.39
2018-02-01T12:45:57.110Z,60.12
2018-02-01T12:46:57.041Z,58.31
2018-02-01T12:47:56.962Z,56.72
2018-02-01T12:48:56.898Z,55.58
2018-02-01T12:49:56.815Z,55.46
2018-02-01T12:50:56.709Z,55.29